Time;durP1;ratioP1;P1;durP2;ratioP2;P2;SDS_P1;SDS_P2;PMS_P1;PMS_P2;Temp;Humidity;BMP_temperature;BMP_pressure;BME280_temperature;BME280_humidity;BME280_pressure;Samples;Min_cycle;Max_cycle;Signal;HPM_P1;HPM_P2
2022/05/18 00:02:06;;;;;;;;;;;;;;;28.36;30.53;100142.34;5075989;28;1889;-40
2022/05/18 00:04:32;;;;;;;;;;;;;;;28.38;30.88;100144.03;5076289;28;854;-36
2022/05/18 00:06:57;;;;;;;;;;;;;;;28.41;30.42;100139.03;5075919;28;878;-39
2022/05/18 00:09:22;;;;;;;;;;;;;;;28.35;30.73;100135.28;5076545;28;939;-40
2022/05/18 00:11:48;;;;;;;;;;;;;;;28.41;30.46;100136.31;5076068;28;932;-38
2022/05/18 00:14:13;;;;;;;;;;;;;;;28.38;30.26;100131.31;5076388;28;738;-38
2022/05/18 00:16:38;;;;;;;;;;;;;;;28.36;30.54;100133.41;5075691;28;840;-37
2022/05/18 00:19:03;;;;;;;;;;;;;;;28.32;30.75;100134.84;5076099;28;912;-39
2022/05/18 00:21:30;;;;;;;;;;;;;;;28.28;30.59;100130.88;5076373;28;825;-37
2022/05/18 00:23:56;;;;;;;;;;;;;;;28.32;30.67;100138.38;5076257;28;1906;-37
2022/05/18 00:26:22;;;;;;;;;;;;;;;28.28;30.59;100137.09;5076071;28;1456;-35
2022/05/18 00:28:47;;;;;;;;;;;;;;;28.30;30.79;100180.16;5075204;28;897;-36
2022/05/18 00:31:12;;;;;;;;;;;;;;;28.31;30.65;100203.50;5075468;28;821;-35
2022/05/18 00:33:38;;;;;;;;;;;;;;;28.27;30.00;100200.38;5058079;28;846;-34
2022/05/18 00:36:03;;;;;;;;;;;;;;;28.32;30.66;100206.00;5076133;28;810;-35
2022/05/18 00:38:28;;;;;;;;;;;;;;;28.35;30.26;100221.00;5075341;28;794;-39
2022/05/18 00:40:54;;;;;;;;;;;;;;;28.34;30.56;100213.94;5075708;28;908;-38
2022/05/18 00:43:20;;;;;;;;;;;;;;;28.35;30.63;100207.47;5075993;28;1902;-37
2022/05/18 00:45:46;;;;;;;;;;;;;;;28.28;30.51;100184.97;5068589;28;832;-38
2022/05/18 00:48:11;;;;;;;;;;;;;;;28.26;30.77;100178.94;5075802;28;967;-37
2022/05/18 00:50:36;;;;;;;;;;;;;;;28.25;30.46;100178.09;5075763;28;905;-39
2022/05/18 00:53:03;;;;;;;;;;;;;;;28.20;30.60;100167.91;5057815;28;820;-40
2022/05/18 00:55:28;;;;;;;;;;;;;;;28.26;30.46;100151.88;5075864;28;895;-38
2022/05/18 00:58:14;;;;;;;;;;;;;;;28.30;30.64;100159.38;5076125;28;836;-35
2022/05/18 01:00:39;;;;;;;;;;;;;;;28.26;30.64;100160.81;5069286;28;860;-39
2022/05/18 01:03:13;;;;;;;;;;;;;;;28.28;30.41;100152.53;5076019;28;1886;-36
2022/05/18 01:05:39;;;;;;;;;;;;;;;28.24;30.61;100165.63;5057584;28;901;-33
2022/05/18 01:08:04;;;;;;;;;;;;;;;28.23;30.70;100164.78;5075187;28;817;-37
2022/05/18 01:10:29;;;;;;;;;;;;;;;28.21;30.64;100158.72;5057858;28;802;-36
2022/05/18 01:12:59;;;;;;;;;;;;;;;28.21;30.66;100149.81;5075549;28;893;-39
2022/05/18 01:15:25;;;;;;;;;;;;;;;28.21;30.65;100161.44;5069623;28;952;-36
2022/05/18 01:17:53;;;;;;;;;;;;;;;28.22;30.50;100154.16;5057613;28;908;-39
2022/05/18 01:20:23;;;;;;;;;;;;;;;28.24;30.61;100173.72;5051238;28;873;-38
2022/05/18 01:22:48;;;;;;;;;;;;;;;28.24;30.72;100181.84;5075467;28;1894;-38
2022/05/18 01:25:32;;;;;;;;;;;;;;;28.23;30.67;100189.13;5075465;28;1527;-38
2022/05/18 01:27:58;;;;;;;;;;;;;;;28.20;30.94;100173.31;5070932;28;873;-38
2022/05/18 01:30:23;;;;;;;;;;;;;;;28.20;30.72;100192.22;5074875;28;888;-37
2022/05/18 01:32:49;;;;;;;;;;;;;;;28.20;30.83;100213.03;5075205;28;777;-38
2022/05/18 01:35:16;;;;;;;;;;;;;;;28.18;30.85;100237.56;5075459;28;841;-39
2022/05/18 01:37:41;;;;;;;;;;;;;;;28.22;30.88;100284.81;5075441;28;781;-38
2022/05/18 01:40:25;;;;;;;;;;;;;;;28.14;31.00;100301.22;5075453;28;765;-38
2022/05/18 01:42:55;;;;;;;;;;;;;;;28.17;31.07;100310.78;5075300;28;1902;-39
2022/05/18 01:45:21;;;;;;;;;;;;;;;28.19;31.03;100327.66;5056568;28;789;-39
2022/05/18 01:47:48;;;;;;;;;;;;;;;28.24;30.64;100347.63;5075340;28;754;-37
2022/05/18 01:50:14;;;;;;;;;;;;;;;28.26;30.75;100352.84;5075213;28;906;-34
2022/05/18 01:52:39;;;;;;;;;;;;;;;28.23;30.53;100355.94;5057393;28;912;-38
2022/05/18 01:55:05;;;;;;;;;;;;;;;28.27;30.54;100340.16;5075216;28;868;-37
2022/05/18 01:57:30;;;;;;;;;;;;;;;28.23;30.76;100316.22;5075267;28;922;-35
2022/05/18 01:59:56;;;;;;;;;;;;;;;28.19;30.80;100296.03;5078697;28;859;-34
2022/05/18 02:02:22;;;;;;;;;;;;;;;28.19;30.68;100304.16;5078467;28;1967;-39
2022/05/18 02:04:48;;;;;;;;;;;;;;;28.17;30.70;100321.59;5079019;28;787;-35
2022/05/18 02:07:13;;;;;;;;;;;;;;;28.20;30.71;100332.84;5078409;28;848;-38
2022/05/18 02:09:39;;;;;;;;;;;;;;;28.18;30.79;100329.50;5078139;28;809;-37
2022/05/18 02:12:05;;;;;;;;;;;;;;;28.18;30.98;100329.50;5078729;28;909;-39
2022/05/18 02:14:30;;;;;;;;;;;;;;;28.20;30.98;100329.31;5078548;28;848;-37
2022/05/18 02:16:56;;;;;;;;;;;;;;;28.24;30.65;100320.59;5078557;28;967;-38
2022/05/18 02:19:21;;;;;;;;;;;;;;;28.24;30.76;100317.06;5078300;28;841;-36
2022/05/18 02:21:46;;;;;;;;;;;;;;;28.19;30.71;100308.72;5060399;28;1963;-38
2022/05/18 02:24:12;;;;;;;;;;;;;;;28.19;30.78;100292.50;5078062;28;826;-37
2022/05/18 02:26:38;;;;;;;;;;;;;;;28.20;30.83;100280.63;5078120;28;997;-37
2022/05/18 02:29:03;;;;;;;;;;;;;;;28.20;30.80;100284.19;5077967;28;817;-38
2022/05/18 02:31:29;;;;;;;;;;;;;;;28.22;30.90;100292.94;5077855;28;927;-38
2022/05/18 02:33:54;;;;;;;;;;;;;;;28.23;30.71;100289.19;5078424;28;777;-37
2022/05/18 02:36:19;;;;;;;;;;;;;;;28.27;30.58;100286.91;5077814;28;797;-38
2022/05/18 02:38:44;;;;;;;;;;;;;;;28.33;30.40;100287.97;5077768;28;878;-35
2022/05/18 02:41:11;;;;;;;;;;;;;;;28.28;30.16;100282.34;5078362;28;746;-37
2022/05/18 02:43:40;;;;;;;;;;;;;;;28.29;30.35;100271.31;5077399;28;1902;-38
2022/05/18 02:46:07;;;;;;;;;;;;;;;28.24;30.63;100269.19;5077784;28;985;-39
2022/05/18 02:48:32;;;;;;;;;;;;;;;28.23;30.52;100267.53;5077414;28;959;-39
2022/05/18 02:50:57;;;;;;;;;;;;;;;28.23;30.56;100262.13;5077506;28;1246;-38
2022/05/18 02:53:23;;;;;;;;;;;;;;;27.97;30.62;100219.59;5077990;28;806;-37
2022/05/18 02:56:06;;;;;;;;;;;;;;;28.21;30.68;100264.19;5077562;28;837;-34
2022/05/18 02:58:36;;;;;;;;;;;;;;;28.17;30.27;100256.69;5077656;28;888;-37
2022/05/18 03:01:02;;;;;;;;;;;;;;;28.19;30.39;100265.44;5076845;28;905;-35
2022/05/18 03:03:28;;;;;;;;;;;;;;;28.16;30.13;100263.16;5077686;28;1962;-37
2022/05/18 03:05:53;;;;;;;;;;;;;;;28.17;30.28;100268.34;5077491;28;820;-37
2022/05/18 03:08:18;;;;;;;;;;;;;;;28.14;30.10;100257.94;5077385;28;947;-39
2022/05/18 03:10:43;;;;;;;;;;;;;;;28.09;29.98;100238.78;5076750;28;994;-35
2022/05/18 03:13:09;;;;;;;;;;;;;;;27.67;34.01;100234.19;5077899;28;760;-32
2022/05/18 03:15:34;;;;;;;;;;;;;;;27.28;34.76;100212.13;5076816;28;1015;-32
2022/05/18 03:18:00;;;;;;;;;;;;;;;27.09;35.88;100208.28;5077399;28;798;-34
2022/05/18 03:25:53;;;;;;;;;;;;;;;26.81;36.68;100200.97;5076635;28;1103;-30
2022/05/18 03:28:18;;;;;;;;;;;;;;;26.49;37.49;100204.81;5077010;28;1042;-30
2022/05/18 03:30:44;;;;;;;;;;;;;;;26.49;37.89;100202.09;5071927;28;916;-34
2022/05/18 03:33:09;;;;;;;;;;;;;;;26.49;38.22;100212.91;5075024;28;777;-33
2022/05/18 03:35:35;;;;;;;;;;;;;;;26.47;38.46;100211.44;5076925;28;790;-33
2022/05/18 03:38:03;;;;;;;;;;;;;;;26.46;38.54;100213.28;5076891;28;813;-30
2022/05/18 03:40:29;;;;;;;;;;;;;;;26.49;38.56;100222.88;5076048;28;862;-34
2022/05/18 03:42:54;;;;;;;;;;;;;;;26.40;39.14;100232.94;5076096;28;1967;-35
2022/05/18 03:45:19;;;;;;;;;;;;;;;26.21;39.70;100256.75;5076276;28;872;-36
2022/05/18 03:47:44;;;;;;;;;;;;;;;26.11;40.08;100261.63;5077050;28;834;-35
2022/05/18 03:50:11;;;;;;;;;;;;;;;26.19;39.56;100272.28;5076076;28;1096;-37
2022/05/18 03:52:36;;;;;;;;;;;;;;;26.44;39.17;100272.00;5076336;28;825;-36
2022/05/18 03:55:01;;;;;;;;;;;;;;;26.69;38.80;100271.63;5076399;28;948;-37
2022/05/18 03:57:27;;;;;;;;;;;;;;;26.82;36.64;100278.19;5076225;28;924;-38
2022/05/18 03:59:52;;;;;;;;;;;;;;;26.76;36.61;100286.00;5076585;28;867;-34
2022/05/18 04:02:17;;;;;;;;;;;;;;;26.60;37.94;100283.56;5075619;28;1906;-37
2022/05/18 04:04:42;;;;;;;;;;;;;;;26.39;38.33;100285.22;5075788;28;816;-36
2022/05/18 04:07:08;;;;;;;;;;;;;;;26.39;38.74;100287.91;5076097;28;880;-33
2022/05/18 04:09:33;;;;;;;;;;;;;;;26.28;39.10;100298.13;5076803;28;825;-36
2022/05/18 04:12:01;;;;;;;;;;;;;;;26.24;39.46;100294.09;5075696;28;1030;-34
2022/05/18 04:14:26;;;;;;;;;;;;;;;26.02;40.15;100304.00;5076646;28;803;-36
2022/05/18 04:16:51;;;;;;;;;;;;;;;25.82;40.21;100298.31;5075438;28;883;-34
2022/05/18 04:19:17;;;;;;;;;;;;;;;25.76;41.26;100294.50;5076074;28;794;-37
2022/05/18 04:21:42;;;;;;;;;;;;;;;25.97;40.06;100301.88;5075633;28;810;-33
2022/05/18 04:24:08;;;;;;;;;;;;;;;25.77;40.62;100298.88;5076319;28;1955;-36
2022/05/18 04:26:33;;;;;;;;;;;;;;;25.76;40.63;100308.81;5075489;28;1162;-36
2022/05/18 04:28:58;;;;;;;;;;;;;;;25.65;40.46;100302.03;5076254;28;834;-36
2022/05/18 04:31:23;;;;;;;;;;;;;;;25.63;40.65;100290.59;5075368;28;854;-36
2022/05/18 04:33:49;;;;;;;;;;;;;;;25.59;40.43;100291.94;5075793;28;876;-33
2022/05/18 04:36:14;;;;;;;;;;;;;;;25.36;41.50;100298.22;5076033;28;842;-31
2022/05/18 04:38:39;;;;;;;;;;;;;;;25.64;40.20;100297.66;5075848;28;838;-37
2022/05/18 04:41:05;;;;;;;;;;;;;;;25.62;40.52;100299.69;5075767;28;818;-34
2022/05/18 04:43:32;;;;;;;;;;;;;;;25.62;41.01;100306.91;5075471;28;1914;-36
2022/05/18 04:45:57;;;;;;;;;;;;;;;26.13;39.20;100313.47;5075992;28;895;-35
2022/05/18 04:48:24;;;;;;;;;;;;;;;26.29;38.12;100312.44;5075607;28;861;-36
2022/05/18 04:50:50;;;;;;;;;;;;;;;26.39;37.93;100317.56;5075816;28;837;-33
2022/05/18 04:53:15;;;;;;;;;;;;;;;26.53;37.68;100316.69;5074968;28;945;-36
2022/05/18 04:55:40;;;;;;;;;;;;;;;26.51;37.79;100324.13;5074901;28;1377;-34
2022/05/18 04:58:06;;;;;;;;;;;;;;;26.59;37.62;100323.19;5075631;28;1247;-37
2022/05/18 05:00:31;;;;;;;;;;;;;;;26.64;37.50;100323.44;5074817;28;1238;-33
2022/05/18 05:02:57;;;;;;;;;;;;;;;26.63;37.28;100313.69;5073966;28;1890;-33
2022/05/18 05:05:23;;;;;;;;;;;;;;;26.68;36.64;100315.81;5075894;28;830;-34
2022/05/18 05:07:49;;;;;;;;;;;;;;;26.73;36.49;100313.38;5074169;28;1116;-33
2022/05/18 05:10:15;;;;;;;;;;;;;;;26.71;36.66;100318.13;5069625;28;963;-35
2022/05/18 05:12:40;;;;;;;;;;;;;;;26.69;36.79;100330.16;5075727;28;996;-34
2022/05/18 05:15:07;;;;;;;;;;;;;;;26.64;37.08;100339.63;5075949;28;817;-35
2022/05/18 05:17:33;;;;;;;;;;;;;;;26.70;34.85;100334.50;5075496;28;825;-31
2022/05/18 05:19:59;;;;;;;;;;;;;;;26.67;34.99;100324.09;5075448;28;905;-34
2022/05/18 05:22:24;;;;;;;;;;;;;;;26.73;35.47;100345.75;5075239;28;1902;-36
2022/05/18 05:24:49;;;;;;;;;;;;;;;26.74;36.18;100352.81;5075417;28;825;-33
2022/05/18 05:27:15;;;;;;;;;;;;;;;26.78;36.15;100353.28;5074843;28;1206;-35
2022/05/18 05:29:40;;;;;;;;;;;;;;;26.76;35.89;100355.31;5075601;28;915;-31
2022/05/18 05:32:06;;;;;;;;;;;;;;;26.74;35.71;100357.41;5069442;28;900;-35
2022/05/18 05:34:32;;;;;;;;;;;;;;;26.78;36.00;100366.78;5079094;28;923;-33
2022/05/18 05:36:57;;;;;;;;;;;;;;;26.82;35.66;100375.31;5060686;28;1234;-35
2022/05/18 05:39:22;;;;;;;;;;;;;;;26.62;32.99;100381.31;5079458;28;746;-37
2022/05/18 05:41:47;;;;;;;;;;;;;;;26.68;33.93;100399.44;5078869;28;1965;-37
2022/05/18 05:44:13;;;;;;;;;;;;;;;26.66;33.46;100398.78;5078674;28;1032;-33
2022/05/18 05:46:39;;;;;;;;;;;;;;;26.68;34.21;100423.72;5075989;28;1278;-35
2022/05/18 05:49:04;;;;;;;;;;;;;;;26.65;34.66;100405.22;5078677;28;1270;-38
2022/05/18 05:51:29;;;;;;;;;;;;;;;26.72;34.55;100416.09;5079418;28;821;-36
2022/05/18 05:53:55;;;;;;;;;;;;;;;26.60;35.02;100410.34;5078965;28;863;-38
2022/05/18 05:56:20;;;;;;;;;;;;;;;26.69;35.30;100411.09;5078452;28;789;-37
2022/05/18 05:58:47;;;;;;;;;;;;;;;26.76;34.00;100415.53;5078526;28;844;-35
2022/05/18 06:01:13;;;;;;;;;;;;;;;26.92;32.80;100404.72;5078400;28;851;-37
2022/05/18 06:03:39;;;;;;;;;;;;;;;27.07;33.17;100397.44;5077744;28;1894;-38
2022/05/18 06:06:04;;;;;;;;;;;;;;;26.71;31.64;100403.66;5079143;28;797;-36
2022/05/18 06:08:30;;;;;;;;;;;;;;;26.84;33.10;100394.88;5078764;28;1116;-37
2022/05/18 06:10:56;;;;;;;;;;;;;;;26.94;33.06;100389.16;5071499;28;1013;-36
2022/05/18 06:13:21;;;;;;;;;;;;;;;27.05;33.19;100420.25;5077763;28;1059;-32
2022/05/18 06:15:47;;;;;;;;;;;;;;;27.20;32.78;100426.44;5077603;28;1143;-38
2022/05/18 06:18:13;;;;;;;;;;;;;;;27.20;32.53;100433.69;5077670;28;1139;-33
2022/05/18 06:20:38;;;;;;;;;;;;;;;27.21;33.00;100435.38;5076179;28;1229;-37
2022/05/18 06:23:06;;;;;;;;;;;;;;;27.21;32.47;100444.31;5076943;28;1960;-33
2022/05/18 06:25:31;;;;;;;;;;;;;;;27.18;32.49;100441.16;5076435;28;1257;-36
2022/05/18 06:27:57;;;;;;;;;;;;;;;27.17;32.51;100434.94;5077710;28;1200;-36
2022/05/18 06:30:22;;;;;;;;;;;;;;;27.23;32.51;100461.16;5078362;28;896;-37
2022/05/18 06:32:47;;;;;;;;;;;;;;;27.30;32.51;100450.44;5077704;28;935;-36
2022/05/18 06:35:13;;;;;;;;;;;;;;;27.31;32.48;100473.69;5078392;28;809;-37
2022/05/18 06:37:38;;;;;;;;;;;;;;;27.35;32.72;100483.09;5077126;28;969;-38
2022/05/18 06:40:07;;;;;;;;;;;;;;;27.31;32.98;100481.00;5077549;28;1120;-35
2022/05/18 06:42:33;;;;;;;;;;;;;;;27.29;32.73;100508.19;5077539;28;1905;-39
2022/05/18 06:44:59;;;;;;;;;;;;;;;27.36;32.68;100519.06;5076888;28;1246;-34
2022/05/18 06:47:24;;;;;;;;;;;;;;;27.36;32.91;100527.16;5078049;28;872;-37
2022/05/18 06:49:50;;;;;;;;;;;;;;;27.45;32.80;100534.13;5077715;28;1119;-38
2022/05/18 06:52:15;;;;;;;;;;;;;;;27.43;32.75;100551.53;5078304;28;1050;-34
2022/05/18 06:54:40;;;;;;;;;;;;;;;27.48;32.49;100543.69;5077482;28;931;-37
2022/05/18 06:57:06;;;;;;;;;;;;;;;27.45;32.46;100546.78;5077617;28;1305;-35
2022/05/18 06:59:31;;;;;;;;;;;;;;;27.46;32.51;100548.47;5072081;28;1226;-37
2022/05/18 07:01:57;;;;;;;;;;;;;;;27.47;32.78;100550.97;5076341;28;1963;-35
2022/05/18 07:04:23;;;;;;;;;;;;;;;27.45;31.90;100561.13;5076960;28;849;-38
2022/05/18 07:06:48;;;;;;;;;;;;;;;27.05;27.28;100555.22;5077398;28;852;-37
2022/05/18 07:09:17;;;;;;;;;;;;;;;27.05;30.42;100555.22;5077193;28;861;-33
2022/05/18 07:11:43;;;;;;;;;;;;;;;27.06;33.03;100571.22;5076252;28;1002;-36
2022/05/18 07:14:09;;;;;;;;;;;;;;;27.02;34.70;100564.53;5072131;28;856;-37
2022/05/18 07:16:34;;;;;;;;;;;;;;;26.93;34.99;100565.63;5076781;28;990;-36
2022/05/18 07:18:59;;;;;;;;;;;;;;;27.00;34.83;100582.75;5059519;28;1016;-37
2022/05/18 07:21:25;;;;;;;;;;;;;;;26.99;35.02;100573.81;5077604;28;854;-35
2022/05/18 07:23:51;;;;;;;;;;;;;;;27.04;34.78;100554.41;5076757;28;1956;-37
2022/05/18 07:26:16;;;;;;;;;;;;;;;27.02;35.23;100584.28;5077238;28;1179;-36
2022/05/18 07:28:42;;;;;;;;;;;;;;;26.94;35.13;100578.94;5076897;28;865;-36
2022/05/18 07:31:07;;;;;;;;;;;;;;;27.02;35.29;100602.34;5077130;28;875;-36
2022/05/18 07:33:32;;;;;;;;;;;;;;;27.02;35.06;100623.94;5077676;28;817;-37
2022/05/18 07:35:59;;;;;;;;;;;;;;;26.96;32.88;100620.06;5058839;28;1126;-35
2022/05/18 07:38:25;;;;;;;;;;;;;;;26.89;31.88;100616.47;5077221;28;759;-38
2022/05/18 07:40:50;;;;;;;;;;;;;;;26.85;34.04;100607.03;5076260;28;1108;-37
2022/05/18 07:43:18;;;;;;;;;;;;;;;26.97;34.79;100612.81;5076583;28;1902;-36
2022/05/18 07:45:43;;;;;;;;;;;;;;;26.92;35.63;100643.06;5076133;28;841;-35
2022/05/18 07:48:09;;;;;;;;;;;;;;;26.95;35.81;100620.25;5076741;28;1413;-37
2022/05/18 07:50:34;;;;;;;;;;;;;;;26.93;35.74;100642.03;5076295;28;1266;-39
2022/05/18 07:52:59;;;;;;;;;;;;;;;26.97;35.25;100624.47;5076022;28;782;-38
2022/05/18 07:55:25;;;;;;;;;;;;;;;26.94;35.74;100624.00;5074978;28;946;-37
2022/05/18 07:57:51;;;;;;;;;;;;;;;26.96;36.13;100654.34;5075748;28;1053;-35
2022/05/18 08:00:18;;;;;;;;;;;;;;;26.97;36.19;100673.06;5075736;28;1550;-37
2022/05/18 08:02:43;;;;;;;;;;;;;;;26.94;35.92;100670.72;5076334;28;1967;-38
2022/05/18 08:05:08;;;;;;;;;;;;;;;26.94;35.57;100672.59;5075679;28;891;-36
2022/05/18 08:07:34;;;;;;;;;;;;;;;26.78;32.75;100674.41;5075617;28;852;-38
2022/05/18 08:15:27;;;;;;;;;;;;;;;26.58;33.53;100695.63;5075704;28;856;-35
2022/05/18 08:17:53;;;;;;;;;;;;;;;26.60;33.54;100712.50;5076178;28;864;-38
2022/05/18 08:20:18;;;;;;;;;;;;;;;26.65;34.13;100747.88;5075950;28;765;-39
2022/05/18 08:22:44;;;;;;;;;;;;;;;26.83;34.77;100771.84;5076357;28;1917;-38
2022/05/18 08:25:09;;;;;;;;;;;;;;;26.43;33.64;100790.84;5075736;28;822;-38
2022/05/18 08:27:35;;;;;;;;;;;;;;;26.20;34.12;100821.25;5075876;28;1044;-36
2022/05/18 08:30:04;;;;;;;;;;;;;;;26.07;34.23;100791.31;5075480;28;1096;-34
2022/05/18 08:32:29;;;;;;;;;;;;;;;26.01;34.12;100795.53;5075152;28;969;-35
2022/05/18 08:34:54;;;;;;;;;;;;;;;25.90;33.32;100783.31;5075351;28;1239;-36
2022/05/18 08:37:22;;;;;;;;;;;;;;;25.76;32.41;100774.06;5075077;28;1340;-38
2022/05/18 08:39:47;;;;;;;;;;;;;;;25.71;32.22;100766.50;5075136;28;1231;-33
2022/05/18 08:42:13;;;;;;;;;;;;;;;25.85;33.07;100788.38;5075371;28;1906;-35
2022/05/18 08:44:38;;;;;;;;;;;;;;;26.12;34.00;100797.03;5075538;28;1009;-36
2022/05/18 08:47:20;;;;;;;;;;;;;;;26.21;32.92;100801.34;5075529;28;860;-36
2022/05/18 08:49:49;;;;;;;;;;;;;;;26.21;33.09;100822.09;5057076;28;1168;-37
2022/05/18 08:52:30;;;;;;;;;;;;;;;26.35;34.05;100807.06;5072512;28;1262;-38
2022/05/18 08:55:08;;;;;;;;;;;;;;;26.44;34.35;100806.03;5075696;28;822;-35
2022/05/18 08:57:34;;;;;;;;;;;;;;;26.41;34.99;100826.06;5069757;28;849;-34
2022/05/18 09:00:00;;;;;;;;;;;;;;;26.54;34.42;100813.88;5057428;28;1132;-33
2022/05/18 09:02:27;;;;;;;;;;;;;;;26.42;34.87;100818.84;5057531;28;1894;-33
2022/05/18 09:04:53;;;;;;;;;;;;;;;26.40;34.74;100794.75;5074942;28;1127;-34
2022/05/18 09:07:19;;;;;;;;;;;;;;;26.39;34.99;100805.72;5058439;28;1604;-36
2022/05/18 09:12:36;;;;;;;;;;;;;;;26.29;35.04;100804.03;5062708;28;1141;-36
2022/05/18 09:15:03;;;;;;;;;;;;;;;26.31;35.25;100811.09;5079029;28;1326;-36
2022/05/18 09:17:31;;;;;;;;;;;;;;;26.25;34.71;100809.94;5078667;28;1108;-35
2022/05/18 09:20:05;;;;;;;;;;;;;;;26.16;34.66;100818.06;5078884;28;1155;-37
2022/05/18 09:22:37;;;;;;;;;;;;;;;26.12;34.26;100829.38;5077432;28;1972;-36
2022/05/18 09:25:05;;;;;;;;;;;;;;;26.00;33.53;100828.91;5079134;28;1021;-32
2022/05/18 09:27:31;;;;;;;;;;;;;;;25.88;32.97;100825.75;5079042;28;1073;-36
2022/05/18 09:30:05;;;;;;;;;;;;;;;25.86;32.80;100834.00;5078217;28;1077;-35
2022/05/18 09:32:30;;;;;;;;;;;;;;;25.88;33.15;100847.31;5079335;28;746;-34
2022/05/18 09:35:12;;;;;;;;;;;;;;;26.09;33.93;100856.69;5079146;28;881;-34
2022/05/18 09:37:40;;;;;;;;;;;;;;;26.16;34.59;100861.22;5072641;28;810;-35
2022/05/18 09:40:17;;;;;;;;;;;;;;;26.26;34.60;100852.91;5072868;28;884;-37
2022/05/18 09:42:45;;;;;;;;;;;;;;;26.27;34.79;100857.31;5079254;28;1961;-36
2022/05/18 09:45:11;;;;;;;;;;;;;;;26.24;35.01;100852.25;5060539;28;820;-34
2022/05/18 09:47:41;;;;;;;;;;;;;;;26.16;34.64;100863.06;5078574;28;1076;-36
2022/05/18 09:50:08;;;;;;;;;;;;;;;26.08;34.02;100879.25;5060475;28;855;-33
2022/05/18 09:52:36;;;;;;;;;;;;;;;26.05;32.98;100877.75;5078832;28;825;-35
2022/05/18 09:55:03;;;;;;;;;;;;;;;26.04;32.26;100885.00;5079364;28;842;-35
2022/05/18 09:57:49;;;;;;;;;;;;;;;25.98;31.67;100895.63;5078234;28;1281;-33
2022/05/18 10:00:18;;;;;;;;;;;;;;;25.96;30.64;100908.44;5060631;28;849;-35
2022/05/18 10:08:12;;;;;;;;;;;;;;;25.94;31.45;100934.72;5078272;28;620;-33
2022/05/18 10:10:38;;;;;;;;;;;;;;;26.13;31.25;100938.88;5078730;28;733;-34
2022/05/18 10:13:12;;;;;;;;;;;;;;;26.24;32.47;100949.31;5078500;28;861;-34
2022/05/18 10:15:38;;;;;;;;;;;;;;;26.31;32.73;100952.16;5077765;28;785;-37
2022/05/18 10:18:33;;;;;;;;;;;;;;;26.32;33.42;100959.25;5060037;28;833;-37
2022/05/18 10:20:59;;;;;;;;;;;;;;;26.03;31.66;100961.50;5056380;28;1267;-36
2022/05/18 10:23:45;;;;;;;;;;;;;;;25.88;31.45;100972.13;5059880;28;1901;-35
2022/05/18 10:26:15;;;;;;;;;;;;;;;25.79;31.11;100976.66;5070599;28;1275;-37
2022/05/18 10:28:41;;;;;;;;;;;;;;;25.74;31.20;100983.59;5055448;28;1348;-36
2022/05/18 10:31:06;;;;;;;;;;;;;;;25.72;31.15;100985.59;5077498;28;861;-38
2022/05/18 10:33:33;;;;;;;;;;;;;;;25.66;30.88;100992.47;5078590;28;860;-37
2022/05/18 10:36:14;;;;;;;;;;;;;;;25.64;30.64;101002.59;5078209;28;932;-32
2022/05/18 10:38:52;;;;;;;;;;;;;;;25.59;30.09;101024.59;5077756;28;880;-35
2022/05/18 10:41:18;;;;;;;;;;;;;;;25.63;29.69;101022.44;5077913;28;805;-35
2022/05/18 10:43:59;;;;;;;;;;;;;;;25.59;29.46;101024.59;5059549;28;1965;-35
2022/05/18 10:46:28;;;;;;;;;;;;;;;25.56;29.56;101030.31;5077551;28;879;-34
2022/05/18 10:48:58;;;;;;;;;;;;;;;25.66;29.17;101038.28;5059324;28;1167;-36
2022/05/18 10:51:27;;;;;;;;;;;;;;;25.59;29.51;101037.25;5077043;28;1127;-32
2022/05/18 10:53:52;;;;;;;;;;;;;;;25.60;28.83;101037.09;5071097;28;969;-35
2022/05/18 10:56:27;;;;;;;;;;;;;;;25.64;28.97;101041.16;5059197;28;1326;-36
2022/05/18 10:59:11;;;;;;;;;;;;;;;25.69;28.70;101037.97;5071398;28;1190;-35
2022/05/18 11:01:44;;;;;;;;;;;;;;;25.64;29.09;101043.03;5077398;28;1002;-36
2022/05/18 11:04:12;;;;;;;;;;;;;;;25.65;28.99;101048.25;5059306;28;1969;-34
2022/05/18 11:06:39;;;;;;;;;;;;;;;25.68;28.94;101056.00;5076872;28;914;-38
2022/05/18 11:09:25;;;;;;;;;;;;;;;25.64;29.00;101061.88;5077324;28;827;-32
2022/05/18 11:11:57;;;;;;;;;;;;;;;25.63;29.41;101057.47;5060749;28;1257;-33
2022/05/18 11:14:37;;;;;;;;;;;;;;;25.62;29.54;101058.47;5076301;28;1255;-33
2022/05/18 11:17:13;;;;;;;;;;;;;;;25.85;28.88;101057.84;5076392;28;1255;-36
2022/05/18 11:19:41;;;;;;;;;;;;;;;25.91;28.76;101060.72;5076971;28;841;-36
2022/05/18 11:22:42;;;;;;;;;;;;;;;25.93;29.29;101065.94;5077193;28;1893;-36
2022/05/18 11:25:13;;;;;;;;;;;;;;;26.02;29.69;101069.50;4970799;28;1344;-34
2022/05/18 11:27:38;;;;;;;;;;;;;;;26.07;30.09;101066.28;5042624;28;1109;-34
2022/05/18 11:30:07;;;;;;;;;;;;;;;26.16;30.69;101073.34;5056372;28;867;-33
2022/05/18 11:32:51;;;;;;;;;;;;;;;26.17;30.67;101069.66;5055430;28;1479;-36
2022/05/18 11:35:17;;;;;;;;;;;;;;;26.12;31.35;101077.41;5056590;28;821;-35
2022/05/18 11:38:05;;;;;;;;;;;;;;;26.18;31.46;101084.81;5056778;28;1108;-37
2022/05/18 11:40:46;;;;;;;;;;;;;;;26.12;30.40;101067.47;5056173;28;1167;-35
2022/05/18 11:43:28;;;;;;;;;;;;;;;26.11;30.80;101079.25;5054242;28;1993;-34
2022/05/18 11:46:08;;;;;;;;;;;;;;;26.17;31.48;101078.56;5046058;28;1083;-36
2022/05/18 11:51:49;;;;;;;;;;;;;;;26.21;31.65;101089.06;5052804;28;671;-35
2022/05/18 11:54:20;;;;;;;;;;;;;;;26.16;31.88;101085.00;5055647;28;874;-35
2022/05/18 11:56:49;;;;;;;;;;;;;;;26.16;31.89;101090.38;5056041;28;808;-34
2022/05/18 12:00:16;;;;;;;;;;;;;;;26.17;32.01;101083.97;5056439;28;747;-36
2022/05/18 12:02:14;;;;;;;;;;;;;;;26.15;32.19;101087.84;5045622;28;1973;-34
2022/05/18 12:05:02;;;;;;;;;;;;;;;26.22;31.91;101088.88;5056260;28;897;-37
2022/05/18 12:07:31;;;;;;;;;;;;;;;26.16;32.07;101095.78;5045854;28;1596;-36
2022/05/18 12:10:15;;;;;;;;;;;;;;;26.22;31.82;101099.66;5055786;28;911;-32
2022/05/18 12:12:40;;;;;;;;;;;;;;;26.17;31.90;101100.16;5048663;28;943;-32
2022/05/18 12:15:08;;;;;;;;;;;;;;;26.27;31.83;101100.00;5054702;28;1552;-34
2022/05/18 12:17:33;;;;;;;;;;;;;;;26.26;31.80;101098.31;5056047;28;849;-37
2022/05/18 12:20:01;;;;;;;;;;;;;;;26.27;31.69;101093.75;5056134;28;830;-34
2022/05/18 12:22:40;;;;;;;;;;;;;;;26.34;31.90;101104.75;5050537;28;1902;-36
2022/05/18 12:25:06;;;;;;;;;;;;;;;26.25;30.01;101107.41;5050057;28;891;-34
2022/05/18 12:27:31;;;;;;;;;;;;;;;26.33;30.69;101100.34;5054131;28;1073;-35
2022/05/18 12:29:57;;;;;;;;;;;;;;;26.38;31.03;101109.63;5053864;28;1151;-33
2022/05/18 12:32:23;;;;;;;;;;;;;;;26.37;31.52;101109.81;5055825;28;989;-36
2022/05/18 12:35:06;;;;;;;;;;;;;;;26.37;31.71;101117.91;5051022;28;1177;-35
2022/05/18 12:37:32;;;;;;;;;;;;;;;26.38;31.77;101114.19;5052087;28;1033;-32
2022/05/18 12:40:16;;;;;;;;;;;;;;;26.37;31.65;101110.66;5055307;28;1020;-32
2022/05/18 12:42:43;;;;;;;;;;;;;;;26.38;31.77;101115.03;5054592;28;2040;-31
2022/05/18 12:45:10;;;;;;;;;;;;;;;26.43;31.01;101114.50;5054492;28;899;-33
2022/05/18 12:47:38;;;;;;;;;;;;;;;26.43;30.41;101119.06;5053852;28;1350;-32
2022/05/18 12:50:07;;;;;;;;;;;;;;;26.45;30.17;101120.59;5055605;28;826;-34
2022/05/18 12:52:32;;;;;;;;;;;;;;;26.48;29.84;101132.88;5055822;28;853;-32
2022/05/18 12:55:03;;;;;;;;;;;;;;;26.42;29.47;101137.13;5055364;28;948;-36
2022/05/18 12:57:40;;;;;;;;;;;;;;;26.42;29.07;101139.81;5054198;28;1081;-35
2022/05/18 13:00:12;;;;;;;;;;;;;;;26.33;29.09;101157.00;5054973;28;835;-37
2022/05/18 13:02:37;;;;;;;;;;;;;;;26.37;29.24;101148.41;5049144;28;1969;-37
2022/05/18 13:05:10;;;;;;;;;;;;;;;26.37;28.79;101142.16;5055246;28;1076;-34
2022/05/18 13:07:35;;;;;;;;;;;;;;;26.33;28.59;101130.88;5048656;28;1012;-34
2022/05/18 13:10:20;;;;;;;;;;;;;;;26.36;28.71;101121.63;5054236;28;1215;-33
2022/05/18 13:12:55;;;;;;;;;;;;;;;26.55;29.67;101130.34;5054931;28;1171;-36
2022/05/18 13:15:21;;;;;;;;;;;;;;;26.61;29.90;101138.59;5054935;28;945;-35
2022/05/18 13:17:48;;;;;;;;;;;;;;;26.68;29.85;101129.81;5055157;28;1234;-35
2022/05/18 13:20:28;;;;;;;;;;;;;;;26.69;30.50;101140.47;5055078;28;1219;-33